EmailTwitter


Observations de surface / Québec / CYSC

Régions: Québec | Canada | États-Unis | Europe | France | UK | Ailleurs
Station
Affichage
Infos & localisation pour CYSC | Aide pour décoder les METARs

Observations prises le 2018-11-18 à 02H00 UTC à SHERBROOKE, QB (CYSC)

Etat du ciel: partiellement nuageux.

Obstacle(s) à la visibilité: faible neige.

Température: -3.0 Celsius

Point de rosée: -6.0 Celsius

Humidité relative: 80%

Facteur vent: -8.

Facteur vent (rafales): -10.

Vents: Ouest-nord-ouest à 17 km/h ou 9 noeuds.

Rafale du vent: 30 km/h ou 16 noeuds.

Pression au niveau moyen de la mer: 102.16 kilopascals.

Calage altimétrique: 102.03 kilopascals ou 30.13 pouces de mercure.

Visibilité horizontale: 9.00 milles terrestres ou 14.40 kilomètres.

Hauteur du plafond: 2134 mètres ( 7000 pieds ).

Observation METAR:

CYSC 180200Z AUTO 29009G16KT 9SM -SN SCT017 SCT025 BKN070 M03/M06 A3013 RMK

SLP216=